Notice: Undefined variable: arrConditions in /home/on25975/domains/weerstationbeusichem.nl/public_html/weather2/wsDataGet.php on line 150

Onweer radar blitzortung!


Regen radar rain snow radar


Bezoek onze andere website:

Template documentation
and downloads

And another site



Het weer levert geen direct gevaar op.    Er zijn geen waarschuwingen afgegeven.

METAR rapporten vliegvelden

  
EBBR - Brussels International Airport, Belgium
Afstand tot: W 14km
Gewijzigd: 23-05-2018 14:20
Gedeeltelijk bewolkt
Gedeeltelijk bewolkt  
 Wind vanuit NO
Wind: NO 11 km/h
Temperatuur:  21°C
Dauwpunt:  15°C
Vochtigheid:  69%
Barometer:  1019 hPa
Bewolking:  Gedeeltelijk bewolkt
Zicht:  7 km
Bewolking:  Licht bewolkt 853 m
Gedeeltelijk bewolkt 1189 m
2018/05/23 12:20 EBBR 231220Z 04006KT 020V090 7000 FEW028 SCT039 21/15 Q1019 NOSIG
EBBE - Beauvechain (Bevekom), Belgium
Afstand tot: ZZO 17km
Gewijzigd: 23-05-2018 14:25
Grotendeels bewolkt
Grotendeels bewolkt  
 Wind vanuit NO
Wind: NO 13 km/h
Temperatuur:  21°C
Dauwpunt:  15°C
Vochtigheid:  69%
Barometer:  1019 hPa
Bewolking:  Grotendeels bewolkt
Zicht:  8 km
Bewolking:  Licht bewolkt 732 m
Gedeeltelijk bewolkt 914 m
Grotendeels bewolkt 4572 m
2018/05/23 12:25 EBBE 231225Z 05007KT 8000 FEW024 SCT030 BKN150 21/15 Q1019 BLU BLU TEMPO WHT
EBDT - Schaffen, Belgium
Afstand tot: ONO 29km
Gewijzigd: 23-05-2018 14:25
Licht bewolkt
Licht bewolkt  
 Wind vanuit O
Wind: O 15 km/h
Temperatuur:  21°C
Dauwpunt:  14°C
Vochtigheid:  64%
Barometer:  1019 hPa
Bewolking:  Licht bewolkt
Zicht:  10 km
Bewolking:  Licht bewolkt 4267 m
2018/05/23 12:25 EBDT 231225Z AUTO 08008KT 9999 FEW140/// 21/14 Q1019 BLU
EBAW - Antwerp/Deurne, Belgium
Afstand tot: NNW 38km
Gewijzigd: 23-05-2018 14:20
Licht bewolkt
Licht bewolkt  
 Wind vanuit NO
Wind: NO 11 km/h
Temperatuur:  22°C
Dauwpunt:  15°C
Vochtigheid:  65%
Barometer:  1019 hPa
Bewolking:  Licht bewolkt
Zicht:  10 km
Bewolking:  Licht bewolkt 853 m
2018/05/23 12:20 EBAW 231220Z 05006KT 350V090 9999 FEW028 22/15 Q1019 NOSIG
EBCI - Charleroi/Gosselies, Belgium
Afstand tot: ZZW 51km
Gewijzigd: 23-05-2018 14:20
Grotendeels bewolkt
Grotendeels bewolkt  
 Wind vanuit NO
Wind: NO 15 km/h
Temperatuur:  20°C
Dauwpunt:  13°C
Vochtigheid:  64%
Barometer:  1019 hPa
Bewolking:  Grotendeels bewolkt
Zicht:  8 km
Bewolking:  Gedeeltelijk bewolkt 732 m
Grotendeels bewolkt 1067 m
2018/05/23 12:20 EBCI 231220Z 04008KT 8000 SCT024 BKN035 20/13 Q1019 NOSIG
EBLG - Bierset/Liege, Belgium
Afstand tot: OZO 60km
Gewijzigd: 23-05-2018 14:20
Licht bewolkt
Licht bewolkt  
 Wind vanuit NO
Wind: NO 13 km/h
Temperatuur:  19°C
Dauwpunt:  15°C
Vochtigheid:  78%
Barometer:  1019 hPa
Bewolking:  Licht bewolkt
Zicht:  10 km
Bewolking:  Licht bewolkt 549 m
2018/05/23 12:20 EBLG 231220Z 04007KT 9999 FEW018 19/15 Q1019 NOSIG

Script ontwikkeld door  Saratoga-weather.org Aangepast voor de template door  Weerstation Leuven

U vindt ons ook hier:


UK Metoffice

European Weather Network

AWEKAS

Weather Underground

Apparatuur in gebruik:


Weerstation
Davis VP2+

Weerprogramma
Meteobridge

Weercomputer
Asus WL -330N3G

Webleverancier
ongekend.nl

Davis VP2+

Meteobridge

Asus WL -330N3G

ongekend.nl